Current Weather

San Diego Intl

San Diego, California (KSAN)

Report from: Wednesday, April 24, 2024 9:51 PM PDT
Current time: Wednesday, April 24, 2024 10:23 PM PDT

Nearby weather – Weather history – Daily summaries
Weather forecast

Temperature16.1°C (61.0°F)
Dew point10.6°C (51.1°F)
Winds 7 kts (3.6 m/s, 8.1 mph) Northwest (310°)
Visibility10 mi. (16.1 km)
Clouds Ceiling: Overcast 2,200 ft. (671 m)
Altimeter30.11 in.Hg (1020 mB)
Relative humidity70 %
Density altitude103 ft. (31 m)
Sea-level pressure101.9 kPa (1019 mB, 30.10 in.Hg)
Remarks System requires maintenance
Automated weather observing station with precipitation discriminator
Flight conditions Marginal Visual Meteorological Conditions
Raw dataKSAN 250451Z 31007KT 10SM OVC022 16/11 A3011 RMK AO2 SLP194 T01610106 $
An error has occurred. This application may no longer respond until reloaded. Reload 🗙